sensor_id;sensor_type;location;lat;lon;timestamp;P1;durP1;ratioP1;P2;durP2;ratioP2
53801;SDS011;39709;53.334;6.534;2023-02-02T00:00:35;5.07;;;0.40;;
53801;SDS011;39709;53.334;6.534;2023-02-02T00:03:01;9.77;;;1.00;;
53801;SDS011;39709;53.334;6.534;2023-02-02T00:05:26;6.20;;;0.50;;
53801;SDS011;39709;53.334;6.534;2023-02-02T00:07:52;2.90;;;0.60;;
53801;SDS011;39709;53.334;6.534;2023-02-02T00:10:18;7.88;;;1.15;;
53801;SDS011;39709;53.334;6.534;2023-02-02T00:12:43;10.50;;;0.90;;
53801;SDS011;39709;53.334;6.534;2023-02-02T00:15:09;5.85;;;0.63;;
53801;SDS011;39709;53.334;6.534;2023-02-02T00:17:35;3.73;;;0.50;;
53801;SDS011;39709;53.334;6.534;2023-02-02T00:20:00;10.77;;;1.07;;
53801;SDS011;39709;53.334;6.534;2023-02-02T00:22:26;6.37;;;1.00;;
53801;SDS011;39709;53.334;6.534;2023-02-02T00:24:52;4.28;;;0.75;;
53801;SDS011;39709;53.334;6.534;2023-02-02T00:27:18;10.15;;;1.55;;
53801;SDS011;39709;53.334;6.534;2023-02-02T00:29:43;7.67;;;0.90;;
53801;SDS011;39709;53.334;6.534;2023-02-02T00:32:09;14.80;;;1.35;;
53801;SDS011;39709;53.334;6.534;2023-02-02T00:34:35;5.63;;;0.60;;
53801;SDS011;39709;53.334;6.534;2023-02-02T00:37:01;7.18;;;0.70;;
53801;SDS011;39709;53.334;6.534;2023-02-02T00:39:26;11.17;;;1.67;;
53801;SDS011;39709;53.334;6.534;2023-02-02T00:41:52;14.43;;;1.43;;
53801;SDS011;39709;53.334;6.534;2023-02-02T00:44:18;15.23;;;0.87;;
53801;SDS011;39709;53.334;6.534;2023-02-02T00:47:03;8.50;;;0.55;;
53801;SDS011;39709;53.334;6.534;2023-02-02T00:49:28;3.95;;;0.40;;
53801;SDS011;39709;53.334;6.534;2023-02-02T00:51:55;16.67;;;2.10;;
53801;SDS011;39709;53.334;6.534;2023-02-02T00:54:21;14.25;;;0.90;;
53801;SDS011;39709;53.334;6.534;2023-02-02T00:56:46;6.43;;;0.87;;
53801;SDS011;39709;53.334;6.534;2023-02-02T00:59:12;11.23;;;0.90;;
53801;SDS011;39709;53.334;6.534;2023-02-02T01:01:38;9.53;;;1.00;;
53801;SDS011;39709;53.334;6.534;2023-02-02T01:04:03;13.70;;;0.87;;
53801;SDS011;39709;53.334;6.534;2023-02-02T01:06:29;7.10;;;1.25;;
53801;SDS011;39709;53.334;6.534;2023-02-02T01:08:55;4.93;;;0.50;;
53801;SDS011;39709;53.334;6.534;2023-02-02T01:11:21;5.88;;;0.93;;
53801;SDS011;39709;53.334;6.534;2023-02-02T01:13:47;15.35;;;1.17;;
53801;SDS011;39709;53.334;6.534;2023-02-02T01:16:13;6.83;;;0.90;;
53801;SDS011;39709;53.334;6.534;2023-02-02T01:18:39;9.43;;;0.77;;
53801;SDS011;39709;53.334;6.534;2023-02-02T01:21:06;6.40;;;0.73;;
53801;SDS011;39709;53.334;6.534;2023-02-02T01:23:34;12.87;;;1.77;;
53801;SDS011;39709;53.334;6.534;2023-02-02T01:26:01;26.58;;;3.60;;
53801;SDS011;39709;53.334;6.534;2023-02-02T01:28:29;12.45;;;1.65;;
53801;SDS011;39709;53.334;6.534;2023-02-02T01:30:55;20.42;;;1.55;;
53801;SDS011;39709;53.334;6.534;2023-02-02T01:33:22;16.33;;;1.13;;
53801;SDS011;39709;53.334;6.534;2023-02-02T01:35:53;21.57;;;1.83;;
53801;SDS011;39709;53.334;6.534;2023-02-02T01:38:20;7.18;;;0.85;;
53801;SDS011;39709;53.334;6.534;2023-02-02T01:40:48;10.10;;;1.02;;
53801;SDS011;39709;53.334;6.534;2023-02-02T01:43:21;23.83;;;2.17;;
53801;SDS011;39709;53.334;6.534;2023-02-02T01:45:50;13.15;;;0.88;;
53801;SDS011;39709;53.334;6.534;2023-02-02T01:48:17;19.33;;;1.83;;
53801;SDS011;39709;53.334;6.534;2023-02-02T01:50:46;10.38;;;1.02;;
53801;SDS011;39709;53.334;6.534;2023-02-02T01:53:14;12.30;;;1.08;;
53801;SDS011;39709;53.334;6.534;2023-02-02T01:55:41;9.32;;;1.08;;
53801;SDS011;39709;53.334;6.534;2023-02-02T01:58:10;12.05;;;0.93;;
53801;SDS011;39709;53.334;6.534;2023-02-02T02:00:42;8.30;;;1.07;;
53801;SDS011;39709;53.334;6.534;2023-02-02T02:03:10;7.63;;;1.15;;
53801;SDS011;39709;53.334;6.534;2023-02-02T02:05:40;6.18;;;0.85;;
53801;SDS011;39709;53.334;6.534;2023-02-02T02:08:16;11.32;;;1.00;;
53801;SDS011;39709;53.334;6.534;2023-02-02T02:10:43;11.02;;;1.70;;
53801;SDS011;39709;53.334;6.534;2023-02-02T02:13:09;4.70;;;0.70;;
53801;SDS011;39709;53.334;6.534;2023-02-02T02:15:42;7.25;;;0.68;;
53801;SDS011;39709;53.334;6.534;2023-02-02T02:33:08;22.57;;;2.30;;
53801;SDS011;39709;53.334;6.534;2023-02-02T02:35:52;16.20;;;1.73;;
53801;SDS011;39709;53.334;6.534;2023-02-02T02:41:08;24.75;;;2.85;;
53801;SDS011;39709;53.334;6.534;2023-02-02T02:43:44;19.13;;;1.35;;
53801;SDS011;39709;53.334;6.534;2023-02-02T02:46:15;22.00;;;2.03;;
53801;SDS011;39709;53.334;6.534;2023-02-02T02:48:42;13.60;;;2.03;;
53801;SDS011;39709;53.334;6.534;2023-02-02T02:59:35;18.20;;;1.30;;
53801;SDS011;39709;53.334;6.534;2023-02-02T03:02:28;15.25;;;1.85;;
53801;SDS011;39709;53.334;6.534;2023-02-02T03:08:09;16.55;;;0.85;;
53801;SDS011;39709;53.334;6.534;2023-02-02T03:10:44;5.65;;;0.82;;
53801;SDS011;39709;53.334;6.534;2023-02-02T03:13:12;7.37;;;0.93;;
53801;SDS011;39709;53.334;6.534;2023-02-02T03:15:45;5.10;;;0.75;;
53801;SDS011;39709;53.334;6.534;2023-02-02T03:18:11;5.50;;;0.60;;
53801;SDS011;39709;53.334;6.534;2023-02-02T03:20:39;10.23;;;1.20;;
53801;SDS011;39709;53.334;6.534;2023-02-02T03:23:06;5.43;;;0.70;;
53801;SDS011;39709;53.334;6.534;2023-02-02T03:25:31;2.77;;;0.37;;
53801;SDS011;39709;53.334;6.534;2023-02-02T03:27:57;8.30;;;0.85;;
53801;SDS011;39709;53.334;6.534;2023-02-02T03:30:23;12.37;;;1.17;;
53801;SDS011;39709;53.334;6.534;2023-02-02T03:32:49;6.47;;;0.85;;
53801;SDS011;39709;53.334;6.534;2023-02-02T03:35:16;8.48;;;1.20;;
53801;SDS011;39709;53.334;6.534;2023-02-02T03:37:44;2.30;;;0.60;;
53801;SDS011;39709;53.334;6.534;2023-02-02T03:40:10;2.60;;;0.60;;
53801;SDS011;39709;53.334;6.534;2023-02-02T03:42:36;10.82;;;0.90;;
53801;SDS011;39709;53.334;6.534;2023-02-02T03:45:02;11.73;;;1.27;;
53801;SDS011;39709;53.334;6.534;2023-02-02T03:47:28;5.32;;;0.55;;
53801;SDS011;39709;53.334;6.534;2023-02-02T03:49:54;11.55;;;0.88;;
53801;SDS011;39709;53.334;6.534;2023-02-02T03:52:20;7.43;;;1.00;;
53801;SDS011;39709;53.334;6.534;2023-02-02T03:54:46;13.70;;;1.00;;
53801;SDS011;39709;53.334;6.534;2023-02-02T03:57:11;4.33;;;0.70;;
53801;SDS011;39709;53.334;6.534;2023-02-02T03:59:37;8.00;;;0.73;;
53801;SDS011;39709;53.334;6.534;2023-02-02T04:02:03;7.00;;;0.73;;
53801;SDS011;39709;53.334;6.534;2023-02-02T04:04:28;9.20;;;1.00;;
53801;SDS011;39709;53.334;6.534;2023-02-02T04:06:54;3.53;;;0.57;;
53801;SDS011;39709;53.334;6.534;2023-02-02T04:09:20;8.07;;;0.57;;
53801;SDS011;39709;53.334;6.534;2023-02-02T04:11:45;5.10;;;0.50;;
53801;SDS011;39709;53.334;6.534;2023-02-02T04:14:11;4.55;;;0.82;;
53801;SDS011;39709;53.334;6.534;2023-02-02T04:16:37;9.27;;;1.10;;
53801;SDS011;39709;53.334;6.534;2023-02-02T04:19:03;4.20;;;0.60;;
53801;SDS011;39709;53.334;6.534;2023-02-02T04:21:28;6.27;;;0.93;;
53801;SDS011;39709;53.334;6.534;2023-02-02T04:23:54;6.25;;;0.70;;
53801;SDS011;39709;53.334;6.534;2023-02-02T04:26:21;8.32;;;1.05;;
53801;SDS011;39709;53.334;6.534;2023-02-02T04:28:49;4.87;;;0.73;;
53801;SDS011;39709;53.334;6.534;2023-02-02T04:31:16;6.80;;;0.63;;
53801;SDS011;39709;53.334;6.534;2023-02-02T04:33:41;7.90;;;0.50;;
53801;SDS011;39709;53.334;6.534;2023-02-02T04:36:07;5.60;;;1.00;;
53801;SDS011;39709;53.334;6.534;2023-02-02T04:38:33;5.50;;;0.32;;
53801;SDS011;39709;53.334;6.534;2023-02-02T04:41:04;7.63;;;0.67;;
53801;SDS011;39709;53.334;6.534;2023-02-02T04:43:32;6.82;;;0.68;;
53801;SDS011;39709;53.334;6.534;2023-02-02T04:45:58;3.58;;;0.50;;
53801;SDS011;39709;53.334;6.534;2023-02-02T04:48:24;4.77;;;0.40;;
53801;SDS011;39709;53.334;6.534;2023-02-02T04:50:49;7.93;;;0.65;;
53801;SDS011;39709;53.334;6.534;2023-02-02T04:53:15;7.57;;;0.60;;
53801;SDS011;39709;53.334;6.534;2023-02-02T04:55:41;6.03;;;0.50;;
53801;SDS011;39709;53.334;6.534;2023-02-02T04:58:06;5.80;;;0.50;;
53801;SDS011;39709;53.334;6.534;2023-02-02T05:00:32;4.20;;;0.73;;
53801;SDS011;39709;53.334;6.534;2023-02-02T05:02:58;7.30;;;1.03;;
53801;SDS011;39709;53.334;6.534;2023-02-02T05:05:24;5.82;;;0.63;;
53801;SDS011;39709;53.334;6.534;2023-02-02T05:07:50;6.72;;;0.63;;
53801;SDS011;39709;53.334;6.534;2023-02-02T05:10:15;4.17;;;0.50;;
53801;SDS011;39709;53.334;6.534;2023-02-02T05:12:41;8.25;;;1.02;;
53801;SDS011;39709;53.334;6.534;2023-02-02T05:15:07;7.57;;;0.80;;
53801;SDS011;39709;53.334;6.534;2023-02-02T05:17:33;5.80;;;0.50;;
53801;SDS011;39709;53.334;6.534;2023-02-02T05:19:59;4.87;;;0.53;;
53801;SDS011;39709;53.334;6.534;2023-02-02T05:22:24;8.27;;;0.57;;
53801;SDS011;39709;53.334;6.534;2023-02-02T05:24:50;4.25;;;0.70;;
53801;SDS011;39709;53.334;6.534;2023-02-02T05:27:16;9.90;;;0.80;;
53801;SDS011;39709;53.334;6.534;2023-02-02T05:29:42;2.77;;;0.30;;
53801;SDS011;39709;53.334;6.534;2023-02-02T05:32:07;2.67;;;0.30;;
53801;SDS011;39709;53.334;6.534;2023-02-02T05:34:33;4.83;;;0.60;;
53801;SDS011;39709;53.334;6.534;2023-02-02T05:36:59;6.32;;;0.88;;
53801;SDS011;39709;53.334;6.534;2023-02-02T05:39:24;5.83;;;0.50;;
53801;SDS011;39709;53.334;6.534;2023-02-02T05:41:50;3.20;;;0.28;;
53801;SDS011;39709;53.334;6.534;2023-02-02T05:44:16;4.10;;;0.30;;
53801;SDS011;39709;53.334;6.534;2023-02-02T05:46:41;2.73;;;0.40;;
53801;SDS011;39709;53.334;6.534;2023-02-02T05:49:11;4.68;;;0.30;;
53801;SDS011;39709;53.334;6.534;2023-02-02T05:51:44;3.92;;;0.38;;
53801;SDS011;39709;53.334;6.534;2023-02-02T05:54:12;2.25;;;0.38;;
53801;SDS011;39709;53.334;6.534;2023-02-02T05:56:45;6.00;;;0.70;;
53801;SDS011;39709;53.334;6.534;2023-02-02T05:59:11;2.43;;;0.60;;
53801;SDS011;39709;53.334;6.534;2023-02-02T06:01:37;6.22;;;0.47;;
53801;SDS011;39709;53.334;6.534;2023-02-02T06:04:02;3.03;;;0.57;;
53801;SDS011;39709;53.334;6.534;2023-02-02T06:06:28;4.15;;;0.47;;
53801;SDS011;39709;53.334;6.534;2023-02-02T06:08:54;1.53;;;0.30;;
53801;SDS011;39709;53.334;6.534;2023-02-02T06:11:19;1.08;;;0.30;;
53801;SDS011;39709;53.334;6.534;2023-02-02T06:13:45;3.03;;;0.40;;
53801;SDS011;39709;53.334;6.534;2023-02-02T06:16:11;5.00;;;0.50;;
53801;SDS011;39709;53.334;6.534;2023-02-02T06:18:36;1.97;;;0.27;;
53801;SDS011;39709;53.334;6.534;2023-02-02T06:21:03;3.97;;;0.65;;
53801;SDS011;39709;53.334;6.534;2023-02-02T06:23:30;6.65;;;0.40;;
53801;SDS011;39709;53.334;6.534;2023-02-02T06:25:57;2.70;;;0.47;;
53801;SDS011;39709;53.334;6.534;2023-02-02T06:28:23;4.40;;;0.30;;
53801;SDS011;39709;53.334;6.534;2023-02-02T06:30:48;4.25;;;0.50;;
53801;SDS011;39709;53.334;6.534;2023-02-02T06:33:14;7.80;;;0.40;;
53801;SDS011;39709;53.334;6.534;2023-02-02T06:35:40;2.00;;;0.20;;
53801;SDS011;39709;53.334;6.534;2023-02-02T06:38:06;8.03;;;0.50;;
53801;SDS011;39709;53.334;6.534;2023-02-02T06:40:31;4.03;;;0.40;;
53801;SDS011;39709;53.334;6.534;2023-02-02T06:42:57;12.23;;;0.83;;
53801;SDS011;39709;53.334;6.534;2023-02-02T06:45:25;9.98;;;0.80;;
53801;SDS011;39709;53.334;6.534;2023-02-02T06:47:51;7.40;;;0.82;;
53801;SDS011;39709;53.334;6.534;2023-02-02T06:50:17;7.28;;;0.65;;
53801;SDS011;39709;53.334;6.534;2023-02-02T06:52:47;5.90;;;0.40;;
53801;SDS011;39709;53.334;6.534;2023-02-02T06:55:13;6.45;;;0.50;;
53801;SDS011;39709;53.334;6.534;2023-02-02T06:57:39;7.35;;;0.50;;
53801;SDS011;39709;53.334;6.534;2023-02-02T07:00:05;9.27;;;0.50;;
53801;SDS011;39709;53.334;6.534;2023-02-02T07:02:31;4.95;;;0.40;;
53801;SDS011;39709;53.334;6.534;2023-02-02T07:04:57;5.15;;;0.45;;
53801;SDS011;39709;53.334;6.534;2023-02-02T07:07:22;3.53;;;0.50;;
53801;SDS011;39709;53.334;6.534;2023-02-02T07:09:48;4.50;;;0.47;;
53801;SDS011;39709;53.334;6.534;2023-02-02T07:12:14;4.37;;;0.40;;
53801;SDS011;39709;53.334;6.534;2023-02-02T07:14:40;3.53;;;0.55;;
53801;SDS011;39709;53.334;6.534;2023-02-02T07:17:05;8.03;;;0.50;;
53801;SDS011;39709;53.334;6.534;2023-02-02T07:19:31;4.47;;;0.43;;
53801;SDS011;39709;53.334;6.534;2023-02-02T07:21:57;6.43;;;0.50;;
53801;SDS011;39709;53.334;6.534;2023-02-02T07:24:23;5.50;;;0.30;;
53801;SDS011;39709;53.334;6.534;2023-02-02T07:26:48;6.43;;;0.40;;
53801;SDS011;39709;53.334;6.534;2023-02-02T07:29:14;6.50;;;0.52;;
53801;SDS011;39709;53.334;6.534;2023-02-02T07:31:40;4.63;;;0.50;;
53801;SDS011;39709;53.334;6.534;2023-02-02T07:34:05;9.30;;;0.50;;
53801;SDS011;39709;53.334;6.534;2023-02-02T07:36:31;5.80;;;0.60;;
53801;SDS011;39709;53.334;6.534;2023-02-02T07:38:57;5.60;;;0.55;;
53801;SDS011;39709;53.334;6.534;2023-02-02T07:41:23;5.18;;;0.43;;
53801;SDS011;39709;53.334;6.534;2023-02-02T07:43:49;5.20;;;0.60;;
53801;SDS011;39709;53.334;6.534;2023-02-02T07:46:16;5.90;;;0.37;;
53801;SDS011;39709;53.334;6.534;2023-02-02T07:48:43;4.30;;;0.45;;
53801;SDS011;39709;53.334;6.534;2023-02-02T07:51:15;5.05;;;1.08;;
53801;SDS011;39709;53.334;6.534;2023-02-02T07:53:42;4.60;;;0.40;;
53801;SDS011;39709;53.334;6.534;2023-02-02T07:56:16;5.90;;;0.50;;
53801;SDS011;39709;53.334;6.534;2023-02-02T07:58:46;3.50;;;0.32;;
53801;SDS011;39709;53.334;6.534;2023-02-02T08:01:15;4.97;;;0.52;;
53801;SDS011;39709;53.334;6.534;2023-02-02T08:03:41;3.55;;;0.38;;
53801;SDS011;39709;53.334;6.534;2023-02-02T08:06:18;3.35;;;0.50;;
53801;SDS011;39709;53.334;6.534;2023-02-02T08:08:45;2.60;;;0.40;;
53801;SDS011;39709;53.334;6.534;2023-02-02T08:11:12;0.82;;;0.17;;
53801;SDS011;39709;53.334;6.534;2023-02-02T08:13:39;2.97;;;0.40;;
53801;SDS011;39709;53.334;6.534;2023-02-02T08:16:06;3.25;;;0.55;;
53801;SDS011;39709;53.334;6.534;2023-02-02T08:18:32;2.08;;;0.40;;
53801;SDS011;39709;53.334;6.534;2023-02-02T08:21:00;3.03;;;0.30;;
53801;SDS011;39709;53.334;6.534;2023-02-02T08:23:26;3.35;;;0.22;;
53801;SDS011;39709;53.334;6.534;2023-02-02T08:25:52;1.95;;;0.20;;
53801;SDS011;39709;53.334;6.534;2023-02-02T08:28:18;3.20;;;0.80;;
53801;SDS011;39709;53.334;6.534;2023-02-02T08:30:44;2.27;;;0.43;;
53801;SDS011;39709;53.334;6.534;2023-02-02T08:33:11;4.63;;;0.32;;
53801;SDS011;39709;53.334;6.534;2023-02-02T08:35:41;4.93;;;0.30;;
53801;SDS011;39709;53.334;6.534;2023-02-02T08:38:07;5.22;;;0.30;;
53801;SDS011;39709;53.334;6.534;2023-02-02T08:40:33;2.53;;;0.40;;
53801;SDS011;39709;53.334;6.534;2023-02-02T08:42:58;2.70;;;0.20;;
53801;SDS011;39709;53.334;6.534;2023-02-02T08:45:24;3.73;;;0.30;;
53801;SDS011;39709;53.334;6.534;2023-02-02T08:47:50;4.65;;;0.50;;
53801;SDS011;39709;53.334;6.534;2023-02-02T08:50:16;5.20;;;0.38;;
53801;SDS011;39709;53.334;6.534;2023-02-02T08:52:42;5.67;;;0.47;;
53801;SDS011;39709;53.334;6.534;2023-02-02T08:55:08;2.53;;;0.25;;
53801;SDS011;39709;53.334;6.534;2023-02-02T08:57:34;2.92;;;0.22;;
53801;SDS011;39709;53.334;6.534;2023-02-02T09:00:00;6.22;;;0.40;;
53801;SDS011;39709;53.334;6.534;2023-02-02T09:02:26;1.48;;;0.20;;
53801;SDS011;39709;53.334;6.534;2023-02-02T09:04:52;8.40;;;0.50;;
53801;SDS011;39709;53.334;6.534;2023-02-02T09:07:18;4.57;;;0.53;;
53801;SDS011;39709;53.334;6.534;2023-02-02T09:09:43;2.65;;;0.25;;
53801;SDS011;39709;53.334;6.534;2023-02-02T09:12:09;1.57;;;0.30;;
53801;SDS011;39709;53.334;6.534;2023-02-02T09:14:35;2.30;;;0.30;;
53801;SDS011;39709;53.334;6.534;2023-02-02T09:17:00;3.03;;;1.40;;
53801;SDS011;39709;53.334;6.534;2023-02-02T09:19:26;3.60;;;0.30;;
53801;SDS011;39709;53.334;6.534;2023-02-02T09:21:52;1.73;;;0.40;;
53801;SDS011;39709;53.334;6.534;2023-02-02T09:24:17;5.27;;;0.47;;
53801;SDS011;39709;53.334;6.534;2023-02-02T09:26:43;7.22;;;0.20;;
53801;SDS011;39709;53.334;6.534;2023-02-02T09:29:14;2.08;;;0.30;;
53801;SDS011;39709;53.334;6.534;2023-02-02T09:31:42;0.50;;;0.10;;
53801;SDS011;39709;53.334;6.534;2023-02-02T09:34:08;2.08;;;0.30;;
53801;SDS011;39709;53.334;6.534;2023-02-02T09:36:36;4.20;;;0.30;;
53801;SDS011;39709;53.334;6.534;2023-02-02T09:39:03;0.85;;;0.17;;
53801;SDS011;39709;53.334;6.534;2023-02-02T09:52:45;3.65;;;0.63;;
53801;SDS011;39709;53.334;6.534;2023-02-02T09:56:00;4.82;;;0.65;;
53801;SDS011;39709;53.334;6.534;2023-02-02T09:58:25;7.00;;;0.60;;
53801;SDS011;39709;53.334;6.534;2023-02-02T10:01:03;5.50;;;0.60;;
53801;SDS011;39709;53.334;6.534;2023-02-02T10:08:50;8.80;;;0.82;;
53801;SDS011;39709;53.334;6.534;2023-02-02T10:14:07;8.05;;;1.00;;
53801;SDS011;39709;53.334;6.534;2023-02-02T10:16:39;12.32;;;0.88;;
53801;SDS011;39709;53.334;6.534;2023-02-02T10:19:09;4.40;;;0.65;;
53801;SDS011;39709;53.334;6.534;2023-02-02T10:24:28;5.87;;;1.03;;
53801;SDS011;39709;53.334;6.534;2023-02-02T10:26:59;6.72;;;0.50;;
53801;SDS011;39709;53.334;6.534;2023-02-02T10:29:31;9.23;;;0.68;;
53801;SDS011;39709;53.334;6.534;2023-02-02T10:34:59;6.22;;;0.60;;
53801;SDS011;39709;53.334;6.534;2023-02-02T10:40:33;6.00;;;0.45;;
53801;SDS011;39709;53.334;6.534;2023-02-02T10:48:49;7.72;;;0.85;;
53801;SDS011;39709;53.334;6.534;2023-02-02T10:51:25;6.90;;;0.60;;
53801;SDS011;39709;53.334;6.534;2023-02-02T10:53:53;7.88;;;0.82;;
53801;SDS011;39709;53.334;6.534;2023-02-02T10:59:04;7.40;;;0.50;;
53801;SDS011;39709;53.334;6.534;2023-02-02T11:01:33;7.93;;;0.65;;
53801;SDS011;39709;53.334;6.534;2023-02-02T11:03:59;6.20;;;0.50;;
53801;SDS011;39709;53.334;6.534;2023-02-02T11:06:51;6.55;;;0.60;;
53801;SDS011;39709;53.334;6.534;2023-02-02T11:09:18;11.50;;;0.80;;
53801;SDS011;39709;53.334;6.534;2023-02-02T11:11:56;8.35;;;0.85;;
53801;SDS011;39709;53.334;6.534;2023-02-02T11:17:16;9.70;;;0.70;;
53801;SDS011;39709;53.334;6.534;2023-02-02T11:19:46;10.70;;;0.75;;
53801;SDS011;39709;53.334;6.534;2023-02-02T11:25:00;4.97;;;0.60;;
53801;SDS011;39709;53.334;6.534;2023-02-02T11:32:52;7.80;;;0.60;;
53801;SDS011;39709;53.334;6.534;2023-02-02T11:35:20;5.10;;;0.60;;
53801;SDS011;39709;53.334;6.534;2023-02-02T11:38:08;8.93;;;0.55;;
53801;SDS011;39709;53.334;6.534;2023-02-02T11:40:44;6.80;;;0.43;;
53801;SDS011;39709;53.334;6.534;2023-02-02T11:46:05;6.55;;;0.60;;
53801;SDS011;39709;53.334;6.534;2023-02-02T11:49:02;6.27;;;0.43;;
53801;SDS011;39709;53.334;6.534;2023-02-02T11:51:32;8.10;;;0.50;;
53801;SDS011;39709;53.334;6.534;2023-02-02T11:54:05;6.68;;;0.60;;
53801;SDS011;39709;53.334;6.534;2023-02-02T11:56:49;3.42;;;0.55;;
53801;SDS011;39709;53.334;6.534;2023-02-02T12:02:07;5.30;;;0.60;;
53801;SDS011;39709;53.334;6.534;2023-02-02T12:04:44;4.70;;;0.70;;
53801;SDS011;39709;53.334;6.534;2023-02-02T12:09:47;4.53;;;0.70;;
53801;SDS011;39709;53.334;6.534;2023-02-02T12:12:24;8.27;;;1.00;;
53801;SDS011;39709;53.334;6.534;2023-02-02T12:18:05;8.93;;;1.05;;
53801;SDS011;39709;53.334;6.534;2023-02-02T12:20:37;6.65;;;0.70;;
53801;SDS011;39709;53.334;6.534;2023-02-02T12:26:30;7.33;;;0.80;;
53801;SDS011;39709;53.334;6.534;2023-02-02T12:29:16;8.10;;;0.50;;
53801;SDS011;39709;53.334;6.534;2023-02-02T12:37:57;5.90;;;0.60;;
53801;SDS011;39709;53.334;6.534;2023-02-02T12:43:41;8.35;;;0.65;;
53801;SDS011;39709;53.334;6.534;2023-02-02T12:52:13;8.15;;;1.80;;
53801;SDS011;39709;53.334;6.534;2023-02-02T12:57:49;7.68;;;0.60;;
53801;SDS011;39709;53.334;6.534;2023-02-02T13:05:38;6.45;;;0.80;;
53801;SDS011;39709;53.334;6.534;2023-02-02T13:11:08;5.45;;;0.60;;
53801;SDS011;39709;53.334;6.534;2023-02-02T13:16:41;3.15;;;0.60;;
53801;SDS011;39709;53.334;6.534;2023-02-02T13:19:34;7.43;;;2.05;;
53801;SDS011;39709;53.334;6.534;2023-02-02T13:21:58;7.37;;;2.23;;
53801;SDS011;39709;53.334;6.534;2023-02-02T13:24:27;16.75;;;6.85;;
53801;SDS011;39709;53.334;6.534;2023-02-02T13:26:56;14.02;;;5.53;;
53801;SDS011;39709;53.334;6.534;2023-02-02T13:32:05;25.52;;;11.68;;
53801;SDS011;39709;53.334;6.534;2023-02-02T13:37:31;51.08;;;27.38;;
53801;SDS011;39709;53.334;6.534;2023-02-02T13:40:24;28.42;;;13.65;;
53801;SDS011;39709;53.334;6.534;2023-02-02T14:05:22;20.65;;;11.88;;
53801;SDS011;39709;53.334;6.534;2023-02-02T14:07:53;11.15;;;4.03;;
53801;SDS011;39709;53.334;6.534;2023-02-02T14:10:34;6.85;;;1.38;;
53801;SDS011;39709;53.334;6.534;2023-02-02T14:15:57;9.67;;;2.60;;
53801;SDS011;39709;53.334;6.534;2023-02-02T14:26:48;9.43;;;3.70;;
53801;SDS011;39709;53.334;6.534;2023-02-02T14:31:57;14.38;;;4.25;;
53801;SDS011;39709;53.334;6.534;2023-02-02T14:39:26;16.10;;;5.32;;
53801;SDS011;39709;53.334;6.534;2023-02-02T14:42:00;13.30;;;4.17;;
53801;SDS011;39709;53.334;6.534;2023-02-02T14:47:59;15.13;;;7.28;;
53801;SDS011;39709;53.334;6.534;2023-02-02T14:50:43;28.48;;;16.45;;
53801;SDS011;39709;53.334;6.534;2023-02-02T14:55:52;21.60;;;9.83;;
53801;SDS011;39709;53.334;6.534;2023-02-02T14:58:33;8.13;;;2.90;;
53801;SDS011;39709;53.334;6.534;2023-02-02T15:01:08;8.65;;;3.75;;
53801;SDS011;39709;53.334;6.534;2023-02-02T15:04:24;13.55;;;8.05;;
53801;SDS011;39709;53.334;6.534;2023-02-02T15:06:33;26.88;;;13.50;;
53801;SDS011;39709;53.334;6.534;2023-02-02T15:25:59;14.00;;;8.25;;
53801;SDS011;39709;53.334;6.534;2023-02-02T15:31:27;14.32;;;5.68;;
53801;SDS011;39709;53.334;6.534;2023-02-02T15:34:54;18.08;;;8.88;;
53801;SDS011;39709;53.334;6.534;2023-02-02T15:37:33;26.07;;;14.37;;
53801;SDS011;39709;53.334;6.534;2023-02-02T15:40:27;22.30;;;11.82;;
53801;SDS011;39709;53.334;6.534;2023-02-02T15:42:55;15.45;;;6.13;;
53801;SDS011;39709;53.334;6.534;2023-02-02T15:48:22;13.88;;;4.53;;
53801;SDS011;39709;53.334;6.534;2023-02-02T15:51:00;16.33;;;6.90;;
53801;SDS011;39709;53.334;6.534;2023-02-02T15:59:13;18.58;;;7.00;;
53801;SDS011;39709;53.334;6.534;2023-02-02T16:01:47;12.57;;;5.65;;
53801;SDS011;39709;53.334;6.534;2023-02-02T16:04:38;22.93;;;6.63;;
53801;SDS011;39709;53.334;6.534;2023-02-02T16:07:08;18.45;;;6.22;;
53801;SDS011;39709;53.334;6.534;2023-02-02T16:09:39;20.33;;;6.20;;
53801;SDS011;39709;53.334;6.534;2023-02-02T16:12:07;15.32;;;5.45;;
53801;SDS011;39709;53.334;6.534;2023-02-02T16:14:46;18.65;;;5.15;;
53801;SDS011;39709;53.334;6.534;2023-02-02T16:17:19;21.47;;;5.63;;
53801;SDS011;39709;53.334;6.534;2023-02-02T16:19:48;19.27;;;5.45;;
53801;SDS011;39709;53.334;6.534;2023-02-02T16:22:19;15.85;;;5.10;;
53801;SDS011;39709;53.334;6.534;2023-02-02T16:24:59;16.42;;;5.07;;
53801;SDS011;39709;53.334;6.534;2023-02-02T16:27:29;18.95;;;5.75;;
53801;SDS011;39709;53.334;6.534;2023-02-02T16:29:58;13.27;;;4.90;;
53801;SDS011;39709;53.334;6.534;2023-02-02T16:32:32;13.88;;;4.32;;
53801;SDS011;39709;53.334;6.534;2023-02-02T16:35:02;15.57;;;4.65;;
53801;SDS011;39709;53.334;6.534;2023-02-02T16:37:31;9.80;;;4.00;;
53801;SDS011;39709;53.334;6.534;2023-02-02T16:40:17;14.52;;;4.07;;
53801;SDS011;39709;53.334;6.534;2023-02-02T16:43:05;14.47;;;3.80;;
53801;SDS011;39709;53.334;6.534;2023-02-02T16:46:03;13.68;;;4.10;;
53801;SDS011;39709;53.334;6.534;2023-02-02T16:48:38;12.40;;;3.85;;
53801;SDS011;39709;53.334;6.534;2023-02-02T16:53:39;23.38;;;5.10;;
53801;SDS011;39709;53.334;6.534;2023-02-02T16:56:09;12.63;;;4.10;;
53801;SDS011;39709;53.334;6.534;2023-02-02T16:58:47;16.65;;;5.38;;
53801;SDS011;39709;53.334;6.534;2023-02-02T17:01:13;15.82;;;4.78;;
53801;SDS011;39709;53.334;6.534;2023-02-02T17:03:41;17.47;;;4.97;;
53801;SDS011;39709;53.334;6.534;2023-02-02T17:06:13;23.13;;;5.65;;
53801;SDS011;39709;53.334;6.534;2023-02-02T17:08:39;17.38;;;5.47;;
53801;SDS011;39709;53.334;6.534;2023-02-02T17:11:24;16.52;;;4.80;;
53801;SDS011;39709;53.334;6.534;2023-02-02T17:13:51;20.23;;;5.13;;
53801;SDS011;39709;53.334;6.534;2023-02-02T17:16:22;18.97;;;4.40;;
53801;SDS011;39709;53.334;6.534;2023-02-02T17:18:49;26.35;;;6.22;;
53801;SDS011;39709;53.334;6.534;2023-02-02T17:21:17;21.58;;;5.63;;
53801;SDS011;39709;53.334;6.534;2023-02-02T17:23:48;20.92;;;5.60;;
53801;SDS011;39709;53.334;6.534;2023-02-02T17:26:15;26.20;;;6.18;;
53801;SDS011;39709;53.334;6.534;2023-02-02T17:28:41;26.13;;;7.00;;
53801;SDS011;39709;53.334;6.534;2023-02-02T17:31:09;24.48;;;6.13;;
53801;SDS011;39709;53.334;6.534;2023-02-02T17:33:36;22.88;;;5.80;;
53801;SDS011;39709;53.334;6.534;2023-02-02T17:36:03;26.83;;;5.93;;
53801;SDS011;39709;53.334;6.534;2023-02-02T17:38:29;29.75;;;7.15;;
53801;SDS011;39709;53.334;6.534;2023-02-02T17:41:00;20.80;;;4.90;;
53801;SDS011;39709;53.334;6.534;2023-02-02T17:43:30;25.27;;;6.57;;
53801;SDS011;39709;53.334;6.534;2023-02-02T17:45:57;26.38;;;6.07;;
53801;SDS011;39709;53.334;6.534;2023-02-02T17:48:23;25.70;;;6.57;;
53801;SDS011;39709;53.334;6.534;2023-02-02T17:50:49;28.80;;;6.03;;
53801;SDS011;39709;53.334;6.534;2023-02-02T17:53:16;21.13;;;5.55;;
53801;SDS011;39709;53.334;6.534;2023-02-02T17:55:44;25.42;;;5.90;;
53801;SDS011;39709;53.334;6.534;2023-02-02T17:58:10;22.13;;;4.78;;
53801;SDS011;39709;53.334;6.534;2023-02-02T18:00:41;23.77;;;5.15;;
53801;SDS011;39709;53.334;6.534;2023-02-02T18:05:33;22.88;;;4.97;;
53801;SDS011;39709;53.334;6.534;2023-02-02T18:08:01;17.08;;;5.07;;
53801;SDS011;39709;53.334;6.534;2023-02-02T18:10:26;23.97;;;4.63;;
53801;SDS011;39709;53.334;6.534;2023-02-02T18:12:54;20.20;;;4.60;;
53801;SDS011;39709;53.334;6.534;2023-02-02T18:15:20;14.75;;;2.92;;
53801;SDS011;39709;53.334;6.534;2023-02-02T18:17:46;22.17;;;4.43;;
53801;SDS011;39709;53.334;6.534;2023-02-02T18:20:15;16.63;;;4.03;;
53801;SDS011;39709;53.334;6.534;2023-02-02T18:22:41;15.68;;;3.83;;